Time;durP1;ratioP1;P1;durP2;ratioP2;P2;SDS_P1;SDS_P2;PMS_P1;PMS_P2;Temp;Humidity;BMP_temperature;BMP_pressure;BME280_temperature;BME280_humidity;BME280_pressure;Samples;Min_cycle;Max_cycle;Signal;HPM_P1;HPM_P2
2021/03/11 00:01:10;;;;;;;27.67;14.28;;;3.70;54.80;;;;;;1729771;83;21148;-81
2021/03/11 00:03:38;;;;;;;29.32;14.68;;;3.70;55.10;;;;;;1730071;83;21153;-82
2021/03/11 00:06:05;;;;;;;28.27;14.18;;;3.60;55.30;;;;;;1729747;83;21706;-81
2021/03/11 00:08:33;;;;;;;33.50;14.78;;;3.60;55.70;;;;;;1729708;82;21612;-84
2021/03/11 00:11:00;;;;;;;31.07;13.72;;;3.50;55.70;;;;;;1729563;82;21170;-82
2021/03/11 00:13:28;;;;;;;26.95;13.53;;;3.60;55.90;;;;;;1729666;82;21145;-83
2021/03/11 00:15:56;;;;;;;30.35;13.53;;;3.50;55.60;;;;;;1729999;82;21583;-81
2021/03/11 00:18:24;;;;;;;25.55;13.28;;;3.50;56.20;;;;;;1729636;82;21209;-81
2021/03/11 00:20:52;;;;;;;28.98;13.80;;;3.40;56.60;;;;;;1729776;82;21169;-81
2021/03/11 00:23:21;;;;;;;28.67;13.62;;;3.20;56.20;;;;;;1727360;83;21556;-81
2021/03/11 00:25:49;;;;;;;25.95;14.20;;;3.30;56.50;;;;;;1729580;83;21140;-80
2021/03/11 00:28:17;;;;;;;34.78;16.10;;;3.30;56.40;;;;;;1729627;82;21184;-79
2021/03/11 00:30:45;;;;;;;31.33;16.40;;;3.40;56.40;;;;;;1729632;83;21572;-80
2021/03/11 00:33:13;;;;;;;33.28;16.35;;;3.20;56.00;;;;;;1729693;83;21180;-79
2021/03/11 00:35:42;;;;;;;38.60;18.60;;;3.30;56.40;;;;;;1729681;83;21183;-80
2021/03/11 00:38:09;;;;;;;38.83;19.05;;;3.30;56.20;;;;;;1729542;82;21168;-80
2021/03/11 00:40:37;;;;;;;37.95;18.75;;;3.20;56.30;;;;;;1729598;82;21156;-80
2021/03/11 00:43:04;;;;;;;35.90;17.42;;;3.20;56.50;;;;;;1730142;83;21190;-79
2021/03/11 00:45:32;;;;;;;33.90;16.65;;;3.10;56.50;;;;;;1729582;82;21165;-80
2021/03/11 00:48:00;;;;;;;30.43;14.10;;;3.00;56.60;;;;;;1729555;83;21126;-80
2021/03/11 00:50:28;;;;;;;29.72;14.05;;;2.80;57.30;;;;;;1729638;83;21168;-80
2021/03/11 00:52:56;;;;;;;29.27;15.23;;;2.80;57.70;;;;;;1730179;83;21560;-80
2021/03/11 00:55:23;;;;;;;32.38;16.52;;;2.90;57.40;;;;;;1729581;82;21169;-81
2021/03/11 00:57:52;;;;;;;33.88;15.68;;;3.00;57.20;;;;;;1729703;83;21180;-81
2021/03/11 01:00:23;;;;;;;35.73;16.15;;;3.10;57.20;;;;;;1729257;83;21149;-81
2021/03/11 01:02:55;;;;;;;34.80;16.48;;;2.90;57.30;;;;;;1729147;83;21169;-81
2021/03/11 01:05:29;;;;;;;29.72;15.43;;;2.90;57.40;;;;;;1729724;83;21599;-80
2021/03/11 01:07:57;;;;;;;32.85;16.57;;;2.80;58.10;;;;;;1729686;82;21595;-80
2021/03/11 01:10:25;;;;;;;32.83;15.00;;;2.70;57.90;;;;;;1730111;83;21280;-80
2021/03/11 01:12:53;;;;;;;31.25;15.35;;;2.70;57.90;;;;;;1729738;83;21161;-82
2021/03/11 01:15:21;;;;;;;34.03;17.05;;;2.70;58.10;;;;;;1729728;83;21189;-79
2021/03/11 01:17:48;;;;;;;43.35;20.55;;;2.70;58.40;;;;;;1729707;82;21169;-80
2021/03/11 01:20:19;;;;;;;53.98;24.10;;;2.70;58.10;;;;;;1729877;83;21160;-80
2021/03/11 01:22:47;;;;;;;48.60;22.27;;;2.80;57.90;;;;;;1730220;83;21137;-80
2021/03/11 01:25:16;;;;;;;33.60;17.37;;;2.70;58.10;;;;;;1729698;82;21153;-79
2021/03/11 01:27:44;;;;;;;32.40;16.27;;;2.60;57.70;;;;;;1729860;82;21160;-80
2021/03/11 01:30:13;;;;;;;35.38;16.07;;;2.50;58.10;;;;;;1733313;82;21143;-80
2021/03/11 01:32:41;;;;;;;32.55;14.78;;;2.40;58.70;;;;;;1733612;82;21147;-81
2021/03/11 01:35:10;;;;;;;26.23;12.70;;;2.30;58.30;;;;;;1733795;82;21187;-79
2021/03/11 01:37:37;;;;;;;26.20;12.23;;;2.20;58.50;;;;;;1733663;82;21601;-82
2021/03/11 01:40:08;;;;;;;26.57;12.63;;;2.00;59.40;;;;;;1733581;83;21166;-79
2021/03/11 01:42:37;;;;;;;25.15;11.83;;;1.80;59.90;;;;;;1733954;83;21557;-81
2021/03/11 01:45:07;;;;;;;26.60;13.22;;;1.70;60.10;;;;;;1733985;82;21574;-81
2021/03/11 01:47:37;;;;;;;27.85;12.47;;;1.80;60.30;;;;;;1733879;82;21175;-79
2021/03/11 01:50:07;;;;;;;25.50;12.53;;;1.80;60.60;;;;;;1733921;82;21146;-79
2021/03/11 01:52:36;;;;;;;26.33;12.53;;;1.80;60.00;;;;;;1733702;82;21565;-78
2021/03/11 01:55:07;;;;;;;27.85;13.55;;;1.80;59.70;;;;;;1733649;82;21119;-79
2021/03/11 01:57:36;;;;;;;27.40;12.80;;;1.80;59.70;;;;;;1714815;83;21166;-79
2021/03/11 02:00:09;;;;;;;29.90;13.45;;;1.80;60.40;;;;;;1733790;82;21588;-79
2021/03/11 02:02:44;;;;;;;30.12;14.13;;;1.80;60.70;;;;;;1733715;82;21119;-80
2021/03/11 02:05:15;;;;;;;29.02;13.35;;;1.90;59.90;;;;;;1733652;82;21139;-84
2021/03/11 02:07:44;;;;;;;26.97;13.00;;;2.10;59.50;;;;;;1734192;83;21743;-80
2021/03/11 02:10:17;;;;;;;27.98;13.70;;;2.20;59.60;;;;;;1733782;82;21182;-80
2021/03/11 02:13:06;;;;;;;25.90;13.20;;;2.10;59.70;;;;;;1733758;82;21132;-80
2021/03/11 02:15:42;;;;;;;31.17;14.05;;;2.00;60.00;;;;;;1733671;83;21182;-80
2021/03/11 02:18:27;;;;;;;31.97;14.38;;;1.90;60.90;;;;;;1733787;81;21162;-79
2021/03/11 02:21:11;;;;;;;32.40;14.68;;;1.90;61.30;;;;;;1733648;83;21138;-81
2021/03/11 02:24:24;;;;;;;37.80;18.60;;;2.00;60.50;;;;;;1733866;82;21151;-81
2021/03/11 02:27:27;;;;;;;36.58;18.00;;;2.00;60.50;;;;;;1732744;82;21585;-81
2021/03/11 02:29:56;;;;;;;35.70;17.10;;;2.00;59.80;;;;;;1743852;82;21587;-82
2021/03/11 02:32:26;;;;;;;41.20;18.55;;;1.90;59.70;;;;;;1747474;81;21759;-81
2021/03/11 02:35:00;;;;;;;39.85;19.55;;;1.80;59.80;;;;;;1747992;82;21139;-81
2021/03/11 02:37:39;;;;;;;46.08;20.85;;;1.80;60.10;;;;;;1747853;81;21182;-82
2021/03/11 02:40:23;;;;;;;38.75;17.95;;;1.80;60.60;;;;;;1747995;82;21130;-82
2021/03/11 02:42:55;;;;;;;34.50;15.55;;;1.60;60.80;;;;;;1747997;81;21142;-82
2021/03/11 02:45:28;;;;;;;35.63;17.27;;;1.50;62.30;;;;;;1748041;82;21166;-80
2021/03/11 02:48:03;;;;;;;37.00;17.30;;;1.60;61.90;;;;;;1747488;82;21276;-80
2021/03/11 02:50:33;;;;;;;35.25;16.77;;;1.60;61.70;;;;;;1747672;82;21173;-79
2021/03/11 02:53:04;;;;;;;31.40;15.48;;;1.50;61.80;;;;;;1747472;81;21311;-79
2021/03/11 02:55:35;;;;;;;31.87;14.80;;;1.30;61.80;;;;;;1747987;82;21560;-78
2021/03/11 02:58:04;;;;;;;29.75;14.20;;;1.10;62.60;;;;;;1747447;82;21316;-79
2021/03/11 03:00:34;;;;;;;28.45;12.80;;;1.00;63.70;;;;;;1747382;82;21182;-80
2021/03/11 03:03:01;;;;;;;29.35;12.88;;;1.00;63.30;;;;;;1747577;81;21288;-80
2021/03/11 03:05:30;;;;;;;28.95;13.72;;;1.00;63.80;;;;;;1747443;82;21294;-80
2021/03/11 03:08:01;;;;;;;28.83;13.98;;;1.00;64.10;;;;;;1747562;82;21154;-79
2021/03/11 03:10:33;;;;;;;32.75;14.40;;;1.10;64.20;;;;;;1747570;82;21148;-79
2021/03/11 03:13:06;;;;;;;34.25;15.48;;;1.20;63.50;;;;;;1747844;82;21145;-79
2021/03/11 03:15:34;;;;;;;35.05;15.88;;;1.40;62.70;;;;;;1746697;82;21182;-79
2021/03/11 03:18:05;;;;;;;33.75;16.00;;;1.50;62.00;;;;;;1747390;82;21320;-79
2021/03/11 03:20:33;;;;;;;38.83;16.42;;;1.40;61.90;;;;;;1747438;81;21284;-79
2021/03/11 03:23:07;;;;;;;37.08;17.00;;;1.40;62.30;;;;;;1747934;81;21162;-79
2021/03/11 03:25:36;;;;;;;34.17;15.93;;;1.40;63.40;;;;;;1745023;81;21292;-78
2021/03/11 03:28:05;;;;;;;39.63;19.25;;;1.10;63.50;;;;;;1747618;82;21157;-78
2021/03/11 03:30:32;;;;;;;45.30;18.20;;;1.00;63.90;;;;;;1735657;81;21190;-79
2021/03/11 03:33:00;;;;;;;41.73;18.73;;;0.90;64.80;;;;;;1733521;82;21147;-81
2021/03/11 03:35:28;;;;;;;42.33;17.85;;;0.90;65.00;;;;;;1734098;82;21166;-79
2021/03/11 03:37:56;;;;;;;40.95;17.73;;;0.90;65.00;;;;;;1733695;82;21182;-78
2021/03/11 03:40:25;;;;;;;35.48;15.25;;;1.10;64.40;;;;;;1733507;82;21208;-78
2021/03/11 03:43:30;;;;;;;37.83;17.52;;;1.30;63.70;;;;;;1733874;82;21158;-77
2021/03/11 03:46:06;;;;;;;39.20;18.37;;;1.30;63.80;;;;;;1732716;82;21135;-77
2021/03/11 03:48:55;;;;;;;38.00;18.35;;;1.10;63.60;;;;;;1734089;83;21639;-78
2021/03/11 03:51:28;;;;;;;36.98;17.32;;;1.10;63.40;;;;;;1733988;82;21170;-79
2021/03/11 03:54:18;;;;;;;37.15;17.20;;;0.90;63.30;;;;;;1733716;82;21151;-79
2021/03/11 03:56:58;;;;;;;34.92;17.00;;;1.00;64.40;;;;;;1733511;82;21135;-80
2021/03/11 03:59:33;;;;;;;35.13;16.62;;;1.00;63.90;;;;;;1733640;82;21111;-79
2021/03/11 04:02:06;;;;;;;30.85;14.68;;;0.90;63.50;;;;;;1733612;81;21171;-79
2021/03/11 04:04:39;;;;;;;35.48;16.73;;;0.80;63.90;;;;;;1734030;82;21138;-79
2021/03/11 04:07:23;;;;;;;36.70;18.02;;;0.80;64.00;;;;;;1733598;82;21550;-79
2021/03/11 04:09:53;;;;;;;38.63;16.57;;;0.80;64.30;;;;;;1733595;82;21111;-79
2021/03/11 04:12:23;;;;;;;35.20;16.52;;;0.70;64.10;;;;;;1733481;82;21194;-80
2021/03/11 04:14:53;;;;;;;38.02;16.40;;;0.80;64.20;;;;;;1733959;83;21151;-79
2021/03/11 04:17:22;;;;;;;33.95;16.65;;;0.80;64.00;;;;;;1733687;82;21578;-78
2021/03/11 04:19:51;;;;;;;40.03;16.95;;;0.90;63.70;;;;;;1734057;82;21170;-79
2021/03/11 04:22:20;;;;;;;35.52;16.25;;;0.90;63.40;;;;;;1733561;82;21175;-79
2021/03/11 04:24:49;;;;;;;36.10;16.65;;;0.80;63.50;;;;;;1733750;82;21143;-78
2021/03/11 04:27:17;;;;;;;33.78;15.43;;;0.80;63.80;;;;;;1733771;83;21178;-79
2021/03/11 04:29:46;;;;;;;33.50;15.25;;;0.80;64.00;;;;;;1732122;82;21168;-79
2021/03/11 04:32:15;;;;;;;30.90;14.03;;;0.70;64.20;;;;;;1729769;82;21169;-79
2021/03/11 04:34:44;;;;;;;30.27;14.90;;;0.70;63.90;;;;;;1730070;83;21217;-79
2021/03/11 04:37:14;;;;;;;36.73;15.28;;;0.80;63.90;;;;;;1729791;82;21131;-78
2021/03/11 04:39:43;;;;;;;36.45;15.75;;;0.90;63.60;;;;;;1729768;83;21153;-79
2021/03/11 04:42:11;;;;;;;33.20;14.87;;;1.00;63.30;;;;;;1729870;82;21311;-79
2021/03/11 04:44:41;;;;;;;34.23;15.45;;;1.20;62.60;;;;;;1729577;83;21126;-79
2021/03/11 04:47:12;;;;;;;37.55;15.45;;;1.10;62.70;;;;;;1729677;83;21125;-79
2021/03/11 04:49:41;;;;;;;31.97;14.75;;;0.90;63.10;;;;;;1729587;83;21161;-79
2021/03/11 04:52:10;;;;;;;29.15;14.05;;;1.00;63.60;;;;;;1729828;82;21152;-78
2021/03/11 04:54:38;;;;;;;33.65;13.08;;;1.10;62.80;;;;;;1730139;82;21315;-79
2021/03/11 04:57:06;;;;;;;35.15;14.68;;;1.10;62.00;;;;;;1729928;83;21157;-78
2021/03/11 04:59:37;;;;;;;33.30;13.88;;;1.10;61.40;;;;;;1729646;83;21620;-78
2021/03/11 05:02:09;;;;;;;26.82;12.78;;;1.00;61.30;;;;;;1729758;83;21153;-79
2021/03/11 05:04:43;;;;;;;34.30;14.95;;;1.10;61.50;;;;;;1729575;82;21140;-79
2021/03/11 05:07:16;;;;;;;34.23;15.88;;;1.10;61.00;;;;;;1729612;82;21149;-78
2021/03/11 05:09:43;;;;;;;40.35;17.50;;;1.00;61.00;;;;;;1729772;82;21169;-79
2021/03/11 05:12:11;;;;;;;43.45;18.62;;;1.10;61.00;;;;;;1729757;82;21165;-80
2021/03/11 05:14:39;;;;;;;42.83;17.80;;;1.10;60.90;;;;;;1729569;83;21165;-80
2021/03/11 05:17:06;;;;;;;45.92;19.17;;;1.10;60.70;;;;;;1729630;83;21612;-81
2021/03/11 05:19:34;;;;;;;42.95;18.85;;;1.00;60.30;;;;;;1729903;82;21291;-79
2021/03/11 05:22:02;;;;;;;43.05;20.08;;;1.00;60.90;;;;;;1729563;82;21133;-81
2021/03/11 05:24:30;;;;;;;48.38;18.52;;;0.90;61.10;;;;;;1729656;83;21584;-82
2021/03/11 05:26:59;;;;;;;46.83;20.02;;;0.90;61.50;;;;;;1726997;83;21193;-79
2021/03/11 05:29:27;;;;;;;48.65;20.37;;;1.00;61.30;;;;;;1729479;82;21181;-79
2021/03/11 05:31:55;;;;;;;54.05;19.77;;;0.90;61.50;;;;;;1729538;83;21580;-77
2021/03/11 05:34:23;;;;;;;51.18;19.95;;;1.00;61.40;;;;;;1729691;83;21169;-78
2021/03/11 05:36:50;;;;;;;49.90;19.00;;;0.80;61.70;;;;;;1729766;83;21157;-77
2021/03/11 05:39:18;;;;;;;40.40;18.42;;;0.80;62.40;;;;;;1728349;83;21193;-82
2021/03/11 05:41:46;;;;;;;50.50;23.25;;;0.90;62.90;;;;;;1729368;83;21157;-87
2021/03/11 05:44:15;;;;;;;44.80;19.05;;;1.00;62.40;;;;;;1725312;83;21185;-81
2021/03/11 05:46:43;;;;;;;46.20;19.00;;;1.10;62.10;;;;;;1715043;83;21146;-80
2021/03/11 05:49:13;;;;;;;41.10;19.00;;;1.10;62.70;;;;;;1716404;83;21185;-77
2021/03/11 05:51:43;;;;;;;43.28;18.32;;;1.10;62.30;;;;;;1714660;83;21157;-80
2021/03/11 05:54:13;;;;;;;39.00;16.20;;;1.30;62.10;;;;;;1713537;82;21168;-81
2021/03/11 05:56:40;;;;;;;41.75;17.23;;;1.30;62.10;;;;;;1717096;83;21106;-84
2021/03/11 05:59:09;;;;;;;30.15;14.73;;;1.40;62.00;;;;;;1716688;83;21544;-84
2021/03/11 06:01:37;;;;;;;34.50;15.78;;;1.40;61.40;;;;;;1713950;83;21137;-82
2021/03/11 06:04:06;;;;;;;38.40;15.18;;;1.40;60.50;;;;;;1714522;83;21144;-78
2021/03/11 06:06:35;;;;;;;35.23;14.33;;;1.40;60.90;;;;;;1715565;83;21157;-83
2021/03/11 06:09:04;;;;;;;39.03;16.67;;;1.40;61.60;;;;;;1715033;83;21164;-80
2021/03/11 06:11:33;;;;;;;32.75;15.63;;;1.30;61.20;;;;;;1713437;83;21180;-77
2021/03/11 06:14:04;;;;;;;35.58;15.70;;;1.40;61.10;;;;;;1711207;82;21144;-81
2021/03/11 06:16:34;;;;;;;37.63;15.28;;;1.40;60.80;;;;;;1700562;84;21168;-82
2021/03/11 06:19:02;;;;;;;32.93;16.87;;;1.50;61.00;;;;;;1700787;84;21676;-82
2021/03/11 06:21:31;;;;;;;32.20;15.95;;;1.60;60.50;;;;;;1707010;83;21142;-81
2021/03/11 06:23:58;;;;;;;32.08;14.05;;;1.50;60.30;;;;;;1713086;83;21169;-82
2021/03/11 06:26:26;;;;;;;29.20;13.60;;;1.50;60.40;;;;;;1713969;83;21149;-79
2021/03/11 06:28:55;;;;;;;31.27;13.75;;;1.60;59.40;;;;;;1713803;83;21172;-77
2021/03/11 06:31:38;;;;;;;32.05;13.32;;;1.60;59.10;;;;;;1713270;82;21591;-76
2021/03/11 06:34:22;;;;;;;28.67;13.20;;;1.60;58.80;;;;;;1713978;83;21166;-77
2021/03/11 06:36:50;;;;;;;23.02;12.40;;;1.80;58.70;;;;;;1714828;83;21587;-76
2021/03/11 06:39:32;;;;;;;30.02;14.03;;;1.90;58.30;;;;;;1713344;83;21157;-75
2021/03/11 06:42:01;;;;;;;29.52;13.25;;;1.90;58.00;;;;;;1700637;83;21648;-79
2021/03/11 06:44:44;;;;;;;28.62;12.93;;;1.70;57.90;;;;;;1704579;83;21584;-86
2021/03/11 06:47:15;;;;;;;34.27;14.35;;;1.70;58.00;;;;;;1715280;83;21688;-84
2021/03/11 06:50:03;;;;;;;33.13;15.45;;;1.80;58.20;;;;;;1717974;83;21567;-79
2021/03/11 06:52:31;;;;;;;35.00;12.88;;;2.00;58.10;;;;;;1714774;83;21138;-78
2021/03/11 06:55:07;;;;;;;34.65;13.75;;;2.20;57.70;;;;;;1716651;83;21189;-81
2021/03/11 06:57:38;;;;;;;32.93;14.70;;;2.20;57.10;;;;;;1715632;83;21652;-81
2021/03/11 07:00:22;;;;;;;32.17;13.22;;;2.30;57.00;;;;;;1714055;83;21137;-80
2021/03/11 07:02:57;;;;;;;27.52;13.13;;;2.50;57.40;;;;;;1719770;83;21303;-76
2021/03/11 07:05:28;;;;;;;27.10;13.15;;;2.60;56.20;;;;;;1714231;83;21580;-79
2021/03/11 07:08:11;;;;;;;33.38;13.62;;;2.70;56.20;;;;;;1713386;83;21192;-78
2021/03/11 07:10:56;;;;;;;24.85;12.90;;;2.70;55.90;;;;;;1814063;79;22945;-78
2021/03/11 07:13:29;;;;;;;30.00;14.20;;;2.70;56.00;;;;;;1780444;80;21137;-79
2021/03/11 07:15:57;;;;;;;29.75;13.53;;;2.80;56.10;;;;;;1785616;80;21121;-75
2021/03/11 07:18:26;;;;;;;32.48;14.23;;;2.90;55.80;;;;;;1791280;80;21137;-75
2021/03/11 07:20:56;;;;;;;36.45;15.13;;;3.10;55.80;;;;;;1792519;80;21172;-78
2021/03/11 07:23:27;;;;;;;35.95;16.32;;;3.20;55.50;;;;;;1746698;81;21141;-82
2021/03/11 07:26:00;;;;;;;35.05;15.25;;;3.30;55.10;;;;;;1765893;80;21111;-75
2021/03/11 07:28:30;;;;;;;36.08;15.38;;;3.30;54.90;;;;;;1785595;80;21576;-76
2021/03/11 07:31:01;;;;;;;32.65;16.20;;;3.40;54.70;;;;;;1781107;80;21156;-77
2021/03/11 07:33:34;;;;;;;33.78;14.87;;;3.50;54.30;;;;;;1764837;80;21098;-78
2021/03/11 07:36:09;;;;;;;29.20;14.10;;;3.60;54.20;;;;;;1771020;80;21564;-77
2021/03/11 07:38:38;;;;;;;33.10;15.30;;;3.70;54.40;;;;;;1781173;80;21128;-77
2021/03/11 07:41:08;;;;;;;26.70;14.33;;;3.70;53.80;;;;;;1781180;80;21169;-74
2021/03/11 07:43:38;;;;;;;36.95;15.43;;;3.70;53.30;;;;;;1778654;80;21274;-75
2021/03/11 07:46:07;;;;;;;33.02;15.23;;;3.70;53.40;;;;;;1784605;80;21600;-74
2021/03/11 07:48:37;;;;;;;27.15;13.22;;;3.90;53.60;;;;;;1783417;80;21137;-78
2021/03/11 07:51:06;;;;;;;32.48;14.55;;;4.10;52.70;;;;;;1782194;80;21167;-80
2021/03/11 07:53:36;;;;;;;28.42;13.72;;;4.20;52.60;;;;;;1782901;80;21165;-79
2021/03/11 07:56:05;;;;;;;31.42;13.60;;;4.40;51.80;;;;;;1784823;80;21178;-78
2021/03/11 07:58:35;;;;;;;25.92;13.35;;;4.60;51.20;;;;;;1782728;80;21130;-77
2021/03/11 08:01:06;;;;;;;17.82;9.90;;;4.90;49.60;;;;;;1785038;80;21145;-77
2021/03/11 08:03:38;;;;;;;21.02;9.43;;;5.90;48.10;;;;;;1784132;80;21129;-78
2021/03/11 08:06:29;;;;;;;20.32;10.93;;;7.00;44.20;;;;;;1780315;80;21223;-78
2021/03/11 08:08:57;;;;;;;23.77;11.25;;;8.10;41.10;;;;;;1780249;80;21175;-77
2021/03/11 08:11:41;;;;;;;21.37;10.80;;;9.20;38.90;;;;;;1779241;80;21118;-77
2021/03/11 08:14:23;;;;;;;20.80;11.57;;;10.30;35.70;;;;;;1778388;80;21129;-79
2021/03/11 08:16:53;;;;;;;20.05;12.15;;;11.40;33.80;;;;;;1774079;80;21153;-78
2021/03/11 08:19:42;;;;;;;19.95;12.35;;;12.30;31.80;;;;;;1776288;80;21138;-78
2021/03/11 08:22:10;;;;;;;19.07;12.43;;;13.00;31.30;;;;;;1776366;80;21169;-84
2021/03/11 08:24:46;;;;;;;19.55;12.50;;;14.10;29.90;;;;;;1777289;80;21200;-84
2021/03/11 08:27:39;;;;;;;17.70;11.68;;;14.70;28.40;;;;;;1776029;80;21102;-84
2021/03/11 08:30:10;;;;;;;19.48;11.55;;;15.40;26.90;;;;;;1776530;80;21106;-86
2021/03/11 08:32:51;;;;;;;20.95;12.70;;;15.80;26.20;;;;;;1765739;80;21188;-85
2021/03/11 08:35:33;;;;;;;18.62;12.18;;;16.10;25.40;;;;;;1776367;80;21141;-90
2021/03/11 08:38:23;;;;;;;16.35;10.82;;;16.70;24.80;;;;;;1777016;80;21739;-84
2021/03/11 08:41:13;;;;;;;17.12;10.85;;;17.20;24.00;;;;;;1772587;80;21168;-82
2021/03/11 08:43:46;;;;;;;14.58;9.33;;;17.40;23.30;;;;;;1775754;80;21548;-88
2021/03/11 08:46:24;;;;;;;16.45;11.03;;;17.40;22.50;;;;;;1779314;80;21169;-84
2021/03/11 08:49:03;;;;;;;21.15;12.13;;;17.10;23.30;;;;;;1775381;80;21189;-85
2021/03/11 08:51:36;;;;;;;17.82;12.05;;;16.90;24.10;;;;;;1774540;80;21165;-85
2021/03/11 08:54:22;;;;;;;19.37;13.20;;;16.60;23.80;;;;;;1774493;80;21130;-86
2021/03/11 08:56:49;;;;;;;21.85;13.05;;;16.30;24.40;;;;;;1774276;80;21134;-90
2021/03/11 08:59:18;;;;;;;19.95;11.85;;;16.10;25.10;;;;;;1777705;80;21095;-85
2021/03/11 09:01:54;;;;;;;17.80;11.60;;;15.50;24.70;;;;;;1773645;80;21170;-81
2021/03/11 09:04:37;;;;;;;22.07;12.73;;;14.80;24.30;;;;;;1776040;81;21138;-81
2021/03/11 09:07:11;;;;;;;19.98;12.78;;;14.10;26.20;;;;;;1772981;80;21121;-82
2021/03/11 09:09:46;;;;;;;18.25;12.25;;;14.00;27.50;;;;;;1775651;80;21165;-81
2021/03/11 09:12:31;;;;;;;19.62;11.73;;;13.80;27.10;;;;;;1764605;80;21514;-79
2021/03/11 09:15:01;;;;;;;20.97;12.20;;;13.50;26.90;;;;;;1768785;81;21122;-80
2021/03/11 09:17:32;;;;;;;21.15;11.78;;;13.30;27.00;;;;;;1772384;81;21598;-80
2021/03/11 09:20:06;;;;;;;18.90;11.18;;;13.10;27.20;;;;;;1768891;80;21117;-80
2021/03/11 09:22:42;;;;;;;17.82;10.68;;;12.70;27.80;;;;;;1753582;80;21094;-80
2021/03/11 09:25:17;;;;;;;14.87;9.18;;;12.30;27.50;;;;;;1770171;81;21169;-77
2021/03/11 09:28:01;;;;;;;17.70;10.30;;;12.00;27.20;;;;;;1762528;81;21137;-80
2021/03/11 09:30:38;;;;;;;18.42;10.03;;;11.40;27.80;;;;;;1744106;81;21130;-77
2021/03/11 09:33:23;;;;;;;16.40;9.65;;;10.90;28.80;;;;;;1783204;79;21560;-77
2021/03/11 09:35:50;;;;;;;18.10;9.43;;;10.70;29.10;;;;;;1774410;79;21153;-80
2021/03/11 09:38:25;;;;;;;20.37;10.18;;;10.70;29.20;;;;;;1775026;79;21145;-78
2021/03/11 09:40:58;;;;;;;19.23;10.55;;;10.70;30.10;;;;;;1771771;79;21186;-73
2021/03/11 09:43:35;;;;;;;22.35;11.18;;;10.70;30.30;;;;;;1733614;81;21112;-80
2021/03/11 09:46:17;;;;;;;18.60;11.05;;;10.60;30.60;;;;;;1774461;79;21094;-76
2021/03/11 09:48:59;;;;;;;18.35;10.15;;;10.50;31.10;;;;;;1768535;79;21580;-79
2021/03/11 09:51:30;;;;;;;17.50;10.08;;;10.30;30.00;;;;;;1788685;79;21149;-77
2021/03/11 09:54:05;;;;;;;18.95;9.08;;;10.30;29.70;;;;;;1780709;79;21150;-76
2021/03/11 09:56:43;;;;;;;17.37;10.20;;;10.20;29.80;;;;;;1770013;81;21636;-75
2021/03/11 09:59:16;;;;;;;22.35;10.18;;;10.10;29.90;;;;;;1770386;81;21134;-78
2021/03/11 10:01:50;;;;;;;19.30;10.25;;;10.00;30.00;;;;;;1766594;81;21099;-80
2021/03/11 10:04:27;;;;;;;21.02;9.70;;;10.00;31.30;;;;;;1763801;81;21570;-75
2021/03/11 10:07:09;;;;;;;16.40;9.25;;;9.80;31.00;;;;;;1772189;80;21118;-77
2021/03/11 10:09:44;;;;;;;22.65;10.32;;;9.80;31.10;;;;;;1767213;81;21126;-81
2021/03/11 10:12:17;;;;;;;25.75;10.58;;;9.80;30.60;;;;;;1776621;80;21722;-82
2021/03/11 10:14:45;;;;;;;23.83;10.25;;;9.70;30.60;;;;;;1774219;80;21134;-75
2021/03/11 10:17:19;;;;;;;18.92;10.45;;;9.70;30.60;;;;;;1783044;80;21166;-81
2021/03/11 10:19:48;;;;;;;17.20;9.80;;;9.70;30.90;;;;;;1778934;80;21168;-78
2021/03/11 10:22:19;;;;;;;16.48;8.85;;;9.70;30.90;;;;;;1777614;80;21169;-81
2021/03/11 10:24:52;;;;;;;18.00;9.58;;;9.70;31.00;;;;;;1774488;80;21126;-82
2021/03/11 10:27:33;;;;;;;18.35;9.75;;;9.70;30.90;;;;;;1776006;80;21153;-79
2021/03/11 10:30:26;;;;;;;18.87;9.50;;;9.60;30.60;;;;;;1775652;80;21471;-78
2021/03/11 10:32:58;;;;;;;18.42;10.55;;;9.50;30.70;;;;;;1777721;80;21165;-78
2021/03/11 10:35:37;;;;;;;17.30;9.23;;;9.40;30.90;;;;;;1772451;80;21544;-81
2021/03/11 10:38:30;;;;;;;17.42;9.70;;;9.40;30.90;;;;;;1775481;80;21156;-78
2021/03/11 10:41:14;;;;;;;18.40;9.68;;;9.50;31.70;;;;;;1777227;80;21130;-81
2021/03/11 10:43:43;;;;;;;17.07;9.70;;;9.60;33.40;;;;;;1775722;80;21165;-79
2021/03/11 10:46:20;;;;;;;17.07;9.60;;;9.70;32.50;;;;;;1774867;81;21616;-78
2021/03/11 10:48:53;;;;;;;17.60;9.43;;;9.80;31.10;;;;;;1774183;80;21165;-79
2021/03/11 10:51:24;;;;;;;18.05;10.25;;;9.60;31.00;;;;;;1772593;80;21158;-80
2021/03/11 10:53:52;;;;;;;15.43;8.65;;;9.60;30.60;;;;;;1775218;80;21169;-79
2021/03/11 10:56:20;;;;;;;17.87;9.80;;;9.60;31.40;;;;;;1776715;80;21222;-79
2021/03/11 10:58:48;;;;;;;17.10;8.83;;;9.70;31.00;;;;;;1776781;80;21548;-78
2021/03/11 11:01:20;;;;;;;18.10;9.58;;;9.50;30.20;;;;;;1775928;80;21555;-80
2021/03/11 11:03:48;;;;;;;20.62;8.90;;;9.30;30.20;;;;;;1774295;80;21577;-78
2021/03/11 11:06:17;;;;;;;17.25;8.73;;;9.20;31.70;;;;;;1777778;80;21553;-80
2021/03/11 11:08:45;;;;;;;16.37;8.50;;;9.30;32.20;;;;;;1778476;80;21642;-83
2021/03/11 11:11:16;;;;;;;18.37;9.25;;;9.40;32.50;;;;;;1775651;80;21548;-76
2021/03/11 11:13:45;;;;;;;18.75;8.55;;;9.40;31.20;;;;;;1774200;80;21149;-77
2021/03/11 11:16:14;;;;;;;16.37;8.53;;;9.50;31.60;;;;;;1780486;80;21276;-77
2021/03/11 11:18:42;;;;;;;16.15;9.03;;;9.70;30.90;;;;;;1776052;81;21137;-78
2021/03/11 11:21:11;;;;;;;16.70;9.30;;;9.70;30.90;;;;;;1778340;80;21523;-77
2021/03/11 11:23:39;;;;;;;15.55;8.65;;;9.60;30.70;;;;;;1777527;80;21169;-77
2021/03/11 11:26:07;;;;;;;15.68;8.43;;;9.60;31.10;;;;;;1772183;80;21129;-77
2021/03/11 11:28:35;;;;;;;18.45;9.18;;;9.50;31.40;;;;;;1776295;80;21571;-79
2021/03/11 11:31:02;;;;;;;20.82;10.00;;;9.60;31.90;;;;;;1776438;80;21218;-78
2021/03/11 11:33:30;;;;;;;18.00;9.93;;;9.70;31.20;;;;;;1776165;80;21170;-77
2021/03/11 11:35:58;;;;;;;20.72;9.88;;;9.70;30.20;;;;;;1773579;80;21134;-79
2021/03/11 11:38:29;;;;;;;21.02;10.13;;;9.70;30.60;;;;;;1772054;80;21160;-76
2021/03/11 11:40:57;;;;;;;21.27;11.03;;;9.70;30.70;;;;;;1774459;80;21152;-77
2021/03/11 11:43:27;;;;;;;20.57;10.05;;;9.40;30.20;;;;;;1775486;80;21125;-77
2021/03/11 11:45:55;;;;;;;18.35;9.98;;;9.10;30.50;;;;;;1775572;80;21595;-80
2021/03/11 11:48:23;;;;;;;19.52;10.28;;;9.20;32.00;;;;;;1779618;80;21138;-77
2021/03/11 11:50:53;;;;;;;20.62;10.90;;;9.10;31.60;;;;;;1755964;82;21164;-75
2021/03/11 11:53:24;;;;;;;21.97;9.58;;;9.10;31.10;;;;;;1768722;80;21161;-79
2021/03/11 11:55:54;;;;;;;17.85;8.53;;;9.00;32.10;;;;;;1773085;80;21731;-84
2021/03/11 11:58:22;;;;;;;17.67;10.15;;;9.10;32.00;;;;;;1776019;80;21206;-77
2021/03/11 12:00:50;;;;;;;14.90;8.75;;;9.10;31.40;;;;;;1774142;80;21169;-80
2021/03/11 12:03:18;;;;;;;22.25;10.95;;;9.10;31.60;;;;;;1776441;80;21136;-79
2021/03/11 12:05:46;;;;;;;19.40;11.55;;;9.20;33.20;;;;;;1777516;80;21133;-80
2021/03/11 12:08:13;;;;;;;26.30;13.10;;;9.40;32.10;;;;;;1778763;80;21156;-78
2021/03/11 12:10:46;;;;;;;19.40;10.03;;;9.50;32.70;;;;;;1775848;80;21556;-78
2021/03/11 12:13:14;;;;;;;16.35;8.88;;;9.50;31.50;;;;;;1771877;80;22228;-78
2021/03/11 12:15:42;;;;;;;20.48;9.90;;;9.60;30.80;;;;;;1776409;80;21576;-80
2021/03/11 12:18:10;;;;;;;15.83;8.70;;;9.70;31.40;;;;;;1784595;80;21296;-79
2021/03/11 12:20:38;;;;;;;17.35;9.20;;;9.70;30.80;;;;;;1784948;80;21189;-78
2021/03/11 12:23:06;;;;;;;19.10;10.55;;;9.60;30.00;;;;;;1778968;80;21296;-78
2021/03/11 12:25:36;;;;;;;20.85;10.50;;;9.50;30.60;;;;;;1773792;80;21162;-80
2021/03/11 12:28:04;;;;;;;15.95;8.98;;;9.20;31.20;;;;;;1771866;80;21170;-79
2021/03/11 12:30:33;;;;;;;18.15;10.23;;;9.30;31.10;;;;;;1771982;80;21549;-81
2021/03/11 12:33:01;;;;;;;16.40;9.05;;;9.40;31.20;;;;;;1773898;80;21134;-83
2021/03/11 12:35:30;;;;;;;18.82;9.78;;;9.60;31.70;;;;;;1770048;80;21129;-83
2021/03/11 12:37:58;;;;;;;19.55;10.30;;;9.70;31.00;;;;;;1771387;80;21124;-82
2021/03/11 12:40:27;;;;;;;18.57;9.45;;;9.60;30.50;;;;;;1772147;80;21165;-84
2021/03/11 12:42:54;;;;;;;21.20;9.10;;;9.60;30.00;;;;;;1778404;80;21617;-83
2021/03/11 12:45:24;;;;;;;17.90;9.80;;;9.70;31.40;;;;;;1772282;80;21566;-86
2021/03/11 12:47:53;;;;;;;15.28;9.08;;;9.80;30.40;;;;;;1776135;80;21141;-85
2021/03/11 12:50:22;;;;;;;16.07;9.15;;;9.90;30.40;;;;;;1776073;80;21129;-83
2021/03/11 12:52:51;;;;;;;17.52;9.50;;;10.10;30.40;;;;;;1780212;80;21146;-86
2021/03/11 12:55:22;;;;;;;19.52;9.58;;;10.20;29.90;;;;;;1785471;80;21239;-90
2021/03/11 12:57:54;;;;;;;19.48;9.28;;;10.20;29.90;;;;;;1750108;82;21150;-88
2021/03/11 13:00:22;;;;;;;16.55;9.25;;;10.30;30.10;;;;;;1754919;81;21157;-87
2021/03/11 13:02:52;;;;;;;16.93;9.68;;;10.30;30.30;;;;;;1768312;81;21130;-79